Terminal Aerodrome Forecast
Issued by NWS Louisville, KY

Home | Current Version | Previous Version | Text Only | Print | Product List | Glossary On
Versions: 1 2 3 4 5 6 7 8 9 10 11 12 13 14
000
FTUS43 KLMK 031100
TAFBWG
TAF
KBWG 031120Z 0312/0412 13005KT P6SM BKN015 BKN022
      TEMPO 0312/0314 6SM BR BKN008
     FM031400 16009KT 3SM BR VCSH BKN008
     FM031700 20013G18KT 5SM -SHRA BKN010
     FM040000 22011KT 2SM -RA BR BKN004
     FM040800 32008KT 5SM -RA BR BKN008=

USA.gov is the U.S. government's official web portal to all federal, state and local government web resources and services.